Time;durP1;ratioP1;P1;durP2;ratioP2;P2;SDS_P1;SDS_P2;PMS_P1;PMS_P2;Temp;Humidity;BMP_temperature;BMP_pressure;BME280_temperature;BME280_humidity;BME280_pressure;Samples;Min_cycle;Max_cycle;Signal;HPM_P1;HPM_P2
2021/07/05 00:01:15;;;;;;;7.30;6.60;;;;;;;16.71;73.61;98734.44;5056299;28;20633;-89
2021/07/05 00:03:41;;;;;;;7.20;6.13;;;;;;;16.66;73.88;98740.69;5039088;28;20247;-91
2021/07/05 00:06:08;;;;;;;6.57;5.93;;;;;;;16.63;73.88;98738.56;5023289;28;20561;-90
2021/07/05 00:08:35;;;;;;;6.77;6.17;;;;;;;16.57;74.04;98741.53;5023093;28;20222;-90
2021/07/05 00:11:02;;;;;;;6.60;6.00;;;;;;;16.58;74.31;98741.28;5023196;28;20229;-90
2021/07/05 00:13:30;;;;;;;7.07;6.37;;;;;;;16.60;74.16;98747.25;5038881;28;20225;-90
2021/07/05 00:15:58;;;;;;;6.70;6.07;;;;;;;16.61;74.42;98751.53;5039869;28;20230;-89
2021/07/05 00:18:25;;;;;;;7.50;6.80;;;;;;;16.61;74.80;98756.94;5038842;28;20229;-91
2021/07/05 00:20:52;;;;;;;7.20;6.50;;;;;;;16.59;74.48;98758.31;5039570;28;20237;-90
2021/07/05 00:23:18;;;;;;;7.20;6.50;;;;;;;16.63;74.05;98767.50;5023142;28;20229;-92
2021/07/05 00:25:45;;;;;;;7.27;6.50;;;;;;;16.71;73.16;98773.13;5039160;28;20229;-91
2021/07/05 00:28:12;;;;;;;7.20;6.60;;;;;;;16.65;72.96;98760.72;5038868;28;20236;-90
2021/07/05 00:30:40;;;;;;;7.10;6.50;;;;;;;16.77;72.48;98767.69;5039121;28;20308;-92
2021/07/05 00:33:07;;;;;;;7.57;6.77;;;;;;;16.76;72.48;98768.75;5039259;28;20343;-91
2021/07/05 00:35:34;;;;;;;7.90;7.13;;;;;;;16.72;72.53;98766.63;5023769;28;20254;-89
2021/07/05 00:38:01;;;;;;;7.17;6.47;;;;;;;16.70;72.53;98757.97;5022316;28;20300;-88
2021/07/05 00:40:28;;;;;;;6.63;6.03;;;;;;;16.84;72.44;98782.53;5055731;28;20636;-90
2021/07/05 00:42:55;;;;;;;7.00;6.30;;;;;;;16.80;72.19;98769.84;5039378;28;20705;-90
2021/07/05 00:45:24;;;;;;;10.90;6.30;;;;;;;16.88;71.88;98769.25;5055510;28;20312;-91
2021/07/05 00:47:51;;;;;;;6.60;5.97;;;;;;;16.91;71.80;98779.50;5022368;28;20618;-90
2021/07/05 00:50:20;;;;;;;6.70;6.10;;;;;;;16.83;71.79;98763.84;5038647;28;20276;-88
2021/07/05 00:52:50;;;;;;;6.47;5.30;;;;;;;16.86;71.93;98772.22;5055406;28;20233;-91
2021/07/05 00:55:18;;;;;;;6.10;5.60;;;;;;;16.89;71.31;98768.94;5018850;28;20226;-91
2021/07/05 00:57:45;;;;;;;6.33;5.83;;;;;;;16.88;71.33;98771.94;5030521;28;20312;-92
2021/07/05 01:00:15;;;;;;;6.17;5.67;;;;;;;16.98;71.50;98785.41;5038418;28;20225;-91
2021/07/05 01:02:42;;;;;;;6.40;5.73;;;;;;;16.99;71.22;98773.47;5038931;28;20221;-89
2021/07/05 01:05:11;;;;;;;6.93;6.33;;;;;;;17.06;70.91;98784.81;5037918;28;20228;-89
2021/07/05 01:07:38;;;;;;;6.27;5.77;;;;;;;17.07;70.61;98783.72;5054392;28;20252;-91
2021/07/05 01:10:08;;;;;;;6.30;5.77;;;;;;;17.09;71.04;98790.44;5037671;28;20233;-91
2021/07/05 01:12:35;;;;;;;6.23;5.63;;;;;;;17.09;70.91;98795.06;5038379;28;20316;-90
2021/07/05 01:15:03;;;;;;;6.30;5.73;;;;;;;17.00;71.07;98784.03;5026152;28;20230;-90
2021/07/05 01:17:30;;;;;;;6.53;5.80;;;;;;;16.98;71.13;98788.13;5018552;28;20242;-90
2021/07/05 01:19:57;;;;;;;6.33;5.80;;;;;;;16.96;71.31;98784.88;5018692;28;20288;-89
2021/07/05 01:22:24;;;;;;;6.77;6.17;;;;;;;16.99;71.71;98793.22;5024953;28;20252;-89
2021/07/05 01:24:51;;;;;;;6.57;5.97;;;;;;;16.93;71.95;98794.38;5038380;28;20299;-92
2021/07/05 01:27:18;;;;;;;6.90;6.20;;;;;;;16.88;71.82;98791.69;5038527;28;20252;-89
2021/07/05 01:29:45;;;;;;;6.90;6.30;;;;;;;16.82;71.87;98789.28;5021637;28;20241;-89
2021/07/05 01:32:13;;;;;;;7.13;6.43;;;;;;;16.82;71.84;98789.28;5021442;28;20313;-89
2021/07/05 01:34:40;;;;;;;6.67;6.17;;;;;;;16.81;71.80;98787.66;5037996;28;20229;-91
2021/07/05 01:37:11;;;;;;;6.40;5.90;;;;;;;16.75;71.77;98794.22;5054701;28;20233;-91
2021/07/05 01:39:38;;;;;;;6.70;6.10;;;;;;;16.64;72.23;98805.09;5037797;28;20225;-89
2021/07/05 01:42:06;;;;;;;6.97;6.40;;;;;;;16.55;72.29;98805.91;5054198;28;20236;-91
2021/07/05 01:44:33;;;;;;;8.03;6.20;;;;;;;16.33;72.47;98775.75;5054564;28;20221;-91
2021/07/05 01:46:59;;;;;;;6.73;6.13;;;;;;;16.38;72.72;98787.31;5037789;28;20322;-89
2021/07/05 01:49:26;;;;;;;7.33;6.47;;;;;;;16.34;73.20;98798.97;5018139;28;20248;-91
2021/07/05 01:51:53;;;;;;;7.27;6.53;;;;;;;16.32;73.04;98801.16;5052173;28;20226;-91
2021/07/05 01:54:21;;;;;;;7.03;6.43;;;;;;;16.22;73.33;98794.69;5017586;28;20225;-90
2021/07/05 01:56:48;;;;;;;7.27;6.40;;;;;;;16.20;73.46;98812.25;5037647;28;20530;-92
2021/07/05 01:59:35;;;;;;;7.80;6.50;;;;;;;16.18;73.97;98809.03;5040623;28;20731;-91
2021/07/05 02:02:05;;;;;;;6.87;6.27;;;;;;;16.21;74.00;98809.28;5036980;28;20233;-86
2021/07/05 02:04:32;;;;;;;7.57;6.87;;;;;;;16.22;74.00;98812.81;5038727;28;20586;-92
2021/07/05 02:06:59;;;;;;;7.30;6.60;;;;;;;16.18;74.04;98793.66;5038163;28;20252;-91
2021/07/05 02:09:25;;;;;;;7.10;6.50;;;;;;;16.24;74.02;98816.03;5002035;28;20234;-90
2021/07/05 02:11:52;;;;;;;8.40;6.90;;;;;;;16.21;74.02;98811.19;5018024;28;20590;-91
2021/07/05 02:14:19;;;;;;;7.17;6.53;;;;;;;16.23;74.19;98817.94;5027949;28;20526;-89
2021/07/05 02:16:46;;;;;;;6.80;6.20;;;;;;;16.23;74.49;98812.53;5054099;28;20561;-88
2021/07/05 02:19:13;;;;;;;7.13;6.43;;;;;;;16.29;74.38;98829.53;5039155;28;20240;-87
2021/07/05 02:21:40;;;;;;;7.20;6.60;;;;;;;16.19;74.28;98816.84;5041487;28;20235;-91
2021/07/05 02:24:07;;;;;;;7.33;6.63;;;;;;;16.25;74.64;98818.47;5024404;28;20317;-87
2021/07/05 02:26:34;;;;;;;7.30;6.60;;;;;;;16.29;74.48;98827.63;5041714;28;20249;-89
2021/07/05 02:29:00;;;;;;;6.63;6.07;;;;;;;16.17;74.77;98827.16;5057728;28;20239;-88
2021/07/05 02:31:27;;;;;;;6.60;6.00;;;;;;;16.26;74.26;98830.91;5058163;28;20233;-91
2021/07/05 02:33:54;;;;;;;6.53;5.93;;;;;;;16.24;74.49;98835.75;5057925;28;20277;-93
2021/07/05 02:36:21;;;;;;;6.77;6.17;;;;;;;16.33;74.09;98843.31;5041034;28;20575;-89
2021/07/05 02:38:48;;;;;;;4.70;4.30;;;;;;;16.28;75.50;98834.13;5041392;28;20229;-92
2021/07/05 02:41:15;;;;;;;5.80;5.40;;;;;;;16.36;75.16;98837.34;5041187;28;20229;-92
2021/07/05 02:43:42;;;;;;;5.73;5.27;;;;;;;16.41;75.14;98846.25;5040982;28;20233;-91
2021/07/05 02:46:08;;;;;;;4.50;4.10;;;;;;;16.58;75.23;98843.25;5040695;28;20229;-91
2021/07/05 02:48:36;;;;;;;3.13;2.93;;;;;;;16.81;75.44;98850.69;5024807;28;20233;-91
2021/07/05 02:51:05;;;;;;;3.43;2.90;;;;;;;17.05;74.65;98853.53;5041105;28;20230;-88
2021/07/05 02:53:32;;;;;;;2.67;2.47;;;;;;;17.33;74.26;98849.28;5040892;28;20229;-90
2021/07/05 02:55:59;;;;;;;2.30;2.10;;;;;;;17.45;73.58;98847.81;5037387;28;20312;-91
2021/07/05 02:58:26;;;;;;;2.47;2.17;;;;;;;17.80;72.44;98854.88;5021940;28;20636;-91
2021/07/05 03:00:55;;;;;;;2.23;2.10;;;;;;;17.98;71.73;98848.75;5024732;28;20229;-91
2021/07/05 03:03:23;;;;;;;2.40;1.93;;;;;;;18.14;71.33;98862.97;5040863;28;20702;-91
2021/07/05 03:05:50;;;;;;;2.30;2.10;;;;;;;18.23;70.71;98861.22;5037429;28;20233;-91
2021/07/05 03:08:17;;;;;;;1.93;1.83;;;;;;;18.36;70.12;98859.72;5053607;28;20225;-89
2021/07/05 03:10:45;;;;;;;2.70;1.97;;;;;;;18.43;69.80;98862.88;5024405;28;20228;-85
2021/07/05 03:13:15;;;;;;;1.90;1.80;;;;;;;18.36;69.71;98874.09;5056473;28;20232;-91
2021/07/05 03:15:43;;;;;;;2.10;2.00;;;;;;;18.41;69.44;98860.47;5055837;28;20417;-91
2021/07/05 03:18:11;;;;;;;1.93;1.83;;;;;;;18.64;68.54;98872.44;5039743;28;20625;-91
2021/07/05 03:20:41;;;;;;;1.90;1.70;;;;;;;18.81;68.27;98883.59;5040521;28;20624;-91
2021/07/05 03:23:11;;;;;;;1.90;1.80;;;;;;;18.83;67.86;98875.19;5040855;28;20633;-90
2021/07/05 03:25:38;;;;;;;1.77;1.60;;;;;;;19.15;66.99;98882.63;5023914;28;20250;-90
2021/07/05 03:28:06;;;;;;;1.70;1.60;;;;;;;19.31;65.63;98892.16;5040112;28;20619;-90
2021/07/05 03:30:35;;;;;;;1.50;1.40;;;;;;;19.44;65.49;98893.38;5039861;28;20554;-88
2021/07/05 03:33:03;;;;;;;2.57;1.70;;;;;;;19.53;64.73;98892.41;5023979;28;20241;-90
2021/07/05 03:35:31;;;;;;;2.60;1.50;;;;;;;19.78;64.09;98899.34;5030098;28;20231;-90
2021/07/05 03:37:58;;;;;;;1.60;1.50;;;;;;;19.83;63.70;98898.44;5004378;28;20226;-90
2021/07/05 03:40:27;;;;;;;1.77;1.67;;;;;;;20.01;63.32;98903.03;5020142;28;20258;-89
2021/07/05 03:42:55;;;;;;;1.60;1.50;;;;;;;20.10;62.77;98909.41;5005251;28;20308;-90
2021/07/05 03:45:28;;;;;;;1.43;1.33;;;;;;;20.15;62.20;98891.06;5036063;28;20227;-89
2021/07/05 03:47:56;;;;;;;1.60;1.30;;;;;;;20.41;61.50;98899.59;5043801;28;20222;-91
2021/07/05 03:50:23;;;;;;;1.40;1.30;;;;;;;20.51;61.01;98899.41;5056265;28;20238;-90
2021/07/05 03:52:51;;;;;;;1.30;1.20;;;;;;;20.53;60.61;98891.72;5040093;28;20672;-90
2021/07/05 03:55:20;;;;;;;1.43;1.20;;;;;;;20.62;60.26;98894.56;5039682;28;20228;-87
2021/07/05 03:57:48;;;;;;;1.30;1.20;;;;;;;20.82;60.09;98905.03;5039752;28;20234;-87
2021/07/05 04:00:20;;;;;;;1.20;1.10;;;;;;;20.94;59.32;98904.53;5055463;28;20312;-90
2021/07/05 04:02:47;;;;;;;1.43;1.10;;;;;;;21.17;58.87;98919.84;5023444;28;20538;-88
2021/07/05 04:05:15;;;;;;;1.30;1.17;;;;;;;21.64;57.66;98915.78;5035755;28;20308;-86
2021/07/05 04:07:43;;;;;;;1.33;1.23;;;;;;;22.35;54.82;98927.63;5032573;28;20224;-89
2021/07/05 04:10:11;;;;;;;2.63;1.23;;;;;;;22.67;54.22;98913.66;5039225;28;20286;-87
2021/07/05 04:12:38;;;;;;;2.20;1.20;;;;;;;22.69;54.04;98918.78;5035877;28;20552;-89
2021/07/05 04:15:06;;;;;;;1.37;1.27;;;;;;;22.63;54.47;98918.13;5018830;28;20510;-86
2021/07/05 04:17:33;;;;;;;1.30;1.20;;;;;;;22.50;54.43;98912.75;5022812;28;20233;-86
2021/07/05 04:20:00;;;;;;;1.40;1.30;;;;;;;22.77;53.96;98915.28;5039183;28;20221;-88
2021/07/05 04:22:27;;;;;;;1.63;1.27;;;;;;;22.68;54.04;98919.91;5022247;28;20683;-87
2021/07/05 04:24:54;;;;;;;1.43;1.33;;;;;;;22.79;53.76;98919.34;5054946;28;20257;-88
2021/07/05 04:27:20;;;;;;;1.63;1.20;;;;;;;22.78;53.90;98916.91;5055750;28;20233;-88
2021/07/05 04:29:47;;;;;;;1.50;1.40;;;;;;;22.86;53.34;98916.16;5038859;28;20273;-88
2021/07/05 04:32:14;;;;;;;1.80;1.40;;;;;;;22.92;53.39;98922.25;5032349;28;20225;-90
2021/07/05 04:34:49;;;;;;;1.43;1.33;;;;;;;22.90;53.20;98927.25;5024578;28;20673;-87
2021/07/05 04:37:17;;;;;;;1.40;1.30;;;;;;;22.92;53.05;98938.63;5038379;28;20319;-89
2021/07/05 04:39:43;;;;;;;1.40;1.30;;;;;;;22.70;53.81;98934.88;5023687;28;20570;-87
2021/07/05 04:42:10;;;;;;;1.57;1.47;;;;;;;22.65;53.51;98926.00;5037412;28;20229;-89
2021/07/05 04:44:37;;;;;;;1.33;1.17;;;;;;;22.45;54.29;98915.63;5022078;28;20235;-89
2021/07/05 04:47:04;;;;;;;2.27;1.30;;;;;;;22.39;54.36;98914.97;5038755;28;20300;-90
2021/07/05 04:49:31;;;;;;;1.53;1.43;;;;;;;22.47;53.97;98922.41;5038179;28;20320;-88
2021/07/05 04:51:58;;;;;;;1.53;1.43;;;;;;;22.64;53.62;98932.56;5023702;28;20227;-88
2021/07/05 04:54:25;;;;;;;1.80;1.27;;;;;;;22.64;53.98;98927.09;5001728;28;20301;-86
2021/07/05 04:56:52;;;;;;;1.37;1.27;;;;;;;22.56;53.91;98925.97;5018865;28;20260;-88
2021/07/05 04:59:19;;;;;;;1.50;1.40;;;;;;;22.66;53.88;98930.34;5019171;28;20509;-87
2021/07/05 05:01:46;;;;;;;1.47;1.00;;;;;;;22.90;53.40;98938.97;5034928;28;20621;-87
2021/07/05 05:04:14;;;;;;;1.17;1.07;;;;;;;22.82;53.54;98923.34;5018029;28;20803;-87
2021/07/05 05:06:42;;;;;;;1.40;1.30;;;;;;;23.02;52.74;98917.31;5025268;28;20538;-88
2021/07/05 05:09:10;;;;;;;1.10;1.10;;;;;;;23.24;52.17;98933.56;5021669;28;20221;-88
2021/07/05 05:11:36;;;;;;;1.33;1.23;;;;;;;23.28;52.36;98926.34;5021833;28;20314;-88
2021/07/05 05:14:04;;;;;;;1.50;1.07;;;;;;;23.46;51.69;98934.59;5037841;28;20237;-86
2021/07/05 05:16:30;;;;;;;1.40;1.17;;;;;;;23.58;51.33;98935.56;5054682;28;20311;-89
2021/07/05 05:18:57;;;;;;;2.13;1.10;;;;;;;23.65;50.73;98935.91;5037775;28;20234;-87
2021/07/05 05:21:25;;;;;;;1.70;1.03;;;;;;;23.71;50.85;98947.47;5021631;28;20226;-88
2021/07/05 05:23:51;;;;;;;2.50;1.20;;;;;;;23.89;50.50;98938.13;5038177;28;20630;-88
2021/07/05 05:26:18;;;;;;;1.00;1.00;;;;;;;23.76;50.27;98950.03;5037560;28;20298;-87
2021/07/05 05:28:45;;;;;;;1.90;1.10;;;;;;;23.89;50.03;98942.81;5021595;28;20238;-86
2021/07/05 05:31:12;;;;;;;1.10;1.00;;;;;;;23.65;50.70;98965.19;5037431;28;20275;-84
2021/07/05 05:33:39;;;;;;;2.13;0.90;;;;;;;23.87;50.06;98965.00;5021741;28;20536;-87
2021/07/05 05:36:07;;;;;;;0.80;0.80;;;;;;;23.94;50.28;98970.78;5037279;28;20641;-86
2021/07/05 05:38:34;;;;;;;2.05;0.82;;;;;;;24.08;49.58;98968.69;5004542;28;20300;-87
2021/07/05 05:41:03;;;;;;;1.65;0.80;;;;;;;24.24;49.25;98971.75;5018228;28;20224;-87
2021/07/05 05:43:30;;;;;;;2.30;0.90;;;;;;;24.13;49.13;98976.72;5001582;28;20585;-86
2021/07/05 05:46:01;;;;;;;1.73;0.90;;;;;;;24.06;49.27;98973.69;5012229;28;20250;-88
2021/07/05 05:48:29;;;;;;;2.40;0.90;;;;;;;24.05;49.18;98960.31;5018300;28;20284;-90
2021/07/05 05:50:57;;;;;;;1.35;0.70;;;;;;;23.83;50.16;98977.72;5034598;28;20243;-87
2021/07/05 05:53:24;;;;;;;0.90;0.90;;;;;;;23.89;49.64;98973.69;5039329;28;20225;-90
2021/07/05 05:55:51;;;;;;;0.70;0.70;;;;;;;23.77;49.71;98962.59;5025190;28;20230;-85
2021/07/05 05:58:18;;;;;;;1.40;0.70;;;;;;;23.57;50.07;98972.22;5006683;28;20230;-85
2021/07/05 06:00:45;;;;;;;1.37;0.70;;;;;;;23.75;49.96;98973.03;5045174;28;20684;-84
2021/07/05 06:03:12;;;;;;;1.60;0.80;;;;;;;23.79;49.61;98978.69;5056990;28;20240;-85
2021/07/05 06:05:39;;;;;;;0.90;0.80;;;;;;;23.97;49.49;98969.34;5057224;28;20703;-84
2021/07/05 06:08:05;;;;;;;0.98;0.80;;;;;;;24.01;48.48;98986.72;5034093;28;20228;-86
2021/07/05 06:10:32;;;;;;;0.80;0.60;;;;;;;23.63;49.13;98970.16;5039983;28;20235;-86
2021/07/05 06:12:59;;;;;;;1.53;0.70;;;;;;;23.83;48.91;98993.31;5057443;28;20234;-85
2021/07/05 06:15:26;;;;;;;1.13;0.90;;;;;;;23.61;48.99;98988.78;5022375;28;20223;-85
2021/07/05 06:18:00;;;;;;;0.83;0.63;;;;;;;23.53;49.43;98986.88;5041481;28;20232;-85
2021/07/05 06:20:27;;;;;;;1.50;0.80;;;;;;;23.64;49.26;98985.44;5023183;28;20248;-85
2021/07/05 06:23:07;;;;;;;1.70;0.80;;;;;;;23.61;49.44;98992.34;5023605;28;20831;-85
2021/07/05 06:25:35;;;;;;;0.73;0.73;;;;;;;23.73;48.93;98977.22;5004780;28;20667;-84
2021/07/05 06:28:03;;;;;;;1.33;0.80;;;;;;;24.12;47.79;98988.00;5023383;28;20226;-84
2021/07/05 06:30:30;;;;;;;1.27;0.70;;;;;;;24.28;47.30;98994.59;5035086;28;20229;-84
2021/07/05 06:32:57;;;;;;;2.08;0.70;;;;;;;24.61;46.10;99005.00;5056944;28;20319;-86
2021/07/05 06:35:24;;;;;;;1.60;0.77;;;;;;;24.75;45.50;98989.16;5020038;28;20232;-81
2021/07/05 06:37:51;;;;;;;1.60;0.70;;;;;;;25.17;44.84;98996.41;5041189;28;20540;-80
2021/07/05 06:40:19;;;;;;;0.80;0.80;;;;;;;25.58;44.07;98983.91;5010017;28;20538;-81
2021/07/05 06:42:46;;;;;;;0.90;0.90;;;;;;;25.90;43.26;98996.13;5006638;28;20649;-79
2021/07/05 06:45:12;;;;;;;0.70;0.70;;;;;;;26.23;42.33;98995.00;5055435;28;20624;-81
2021/07/05 06:47:39;;;;;;;1.73;0.73;;;;;;;26.39;41.90;98994.38;5039095;28;20308;-80
2021/07/05 06:50:07;;;;;;;1.75;0.80;;;;;;;26.83;41.05;98999.03;5035755;28;20295;-81
2021/07/05 06:52:34;;;;;;;0.70;0.70;;;;;;;26.96;40.29;98989.72;5036521;28;20226;-80
2021/07/05 06:55:02;;;;;;;0.60;0.60;;;;;;;26.92;39.95;98996.25;5045790;28;20229;-80
2021/07/05 06:57:29;;;;;;;2.70;0.80;;;;;;;26.91;40.13;98989.94;5039582;28;20290;-80
2021/07/05 06:59:59;;;;;;;1.42;0.73;;;;;;;26.91;40.50;98998.19;5027031;28;20247;-80
2021/07/05 07:02:26;;;;;;;0.75;0.70;;;;;;;26.77;40.64;98994.94;5036138;28;20228;-81
2021/07/05 07:04:53;;;;;;;1.02;0.68;;;;;;;26.54;40.58;98994.56;5051126;28;20295;-80
2021/07/05 07:07:20;;;;;;;0.93;0.73;;;;;;;26.41;41.62;99006.63;5039601;28;20253;-80
2021/07/05 07:09:47;;;;;;;1.45;0.80;;;;;;;26.26;40.71;98996.31;5054428;28;20231;-80
2021/07/05 07:12:14;;;;;;;2.80;0.77;;;;;;;25.77;41.55;99004.28;5022717;28;20306;-80
2021/07/05 07:14:41;;;;;;;0.90;0.60;;;;;;;25.52;41.55;99002.50;5055564;28;20275;-80
2021/07/05 07:17:14;;;;;;;1.50;0.75;;;;;;;24.94;42.88;98995.88;5023172;28;20328;-80
2021/07/05 07:19:41;;;;;;;1.05;0.70;;;;;;;24.60;43.48;99003.38;5055868;28;20222;-80
2021/07/05 07:22:08;;;;;;;1.08;0.88;;;;;;;24.48;43.67;99004.06;5025200;28;20317;-80
2021/07/05 07:24:34;;;;;;;0.88;0.88;;;;;;;24.43;44.02;98990.56;5025245;28;20640;-79
2021/07/05 07:27:01;;;;;;;1.95;0.77;;;;;;;24.91;43.57;99013.00;5056577;28;20857;-79
2021/07/05 07:29:28;;;;;;;1.20;0.82;;;;;;;25.01;43.06;98994.56;5054756;28;20242;-78
2021/07/05 07:31:55;;;;;;;1.67;0.70;;;;;;;25.04;43.31;99011.16;5055823;28;20230;-79
2021/07/05 07:34:22;;;;;;;3.33;0.80;;;;;;;25.12;43.07;99013.03;5022410;28;20250;-79
2021/07/05 07:36:49;;;;;;;0.75;0.75;;;;;;;25.08;42.97;98995.66;5039470;28;20260;-80
2021/07/05 07:39:24;;;;;;;0.60;0.60;;;;;;;25.24;43.13;99004.13;5021946;28;20222;-79
2021/07/05 07:41:51;;;;;;;1.55;0.80;;;;;;;25.39;43.00;99009.00;5040064;28;20229;-79
2021/07/05 07:44:18;;;;;;;0.90;0.90;;;;;;;25.31;42.79;99013.44;5021933;28;20261;-80
2021/07/05 07:46:45;;;;;;;0.70;0.70;;;;;;;25.51;42.07;98995.41;5055799;28;20251;-79
2021/07/05 07:49:11;;;;;;;0.60;0.60;;;;;;;25.69;42.18;98999.66;5056574;28;20229;-79
2021/07/05 07:51:39;;;;;;;1.55;0.70;;;;;;;25.75;42.28;99003.00;5033711;28;20301;-79
2021/07/05 07:54:06;;;;;;;1.60;0.90;;;;;;;25.93;41.80;98999.00;5018517;28;20709;-79
2021/07/05 07:56:34;;;;;;;1.95;0.70;;;;;;;25.84;41.29;98992.78;5033083;28;20222;-79
2021/07/05 07:59:02;;;;;;;1.48;0.93;;;;;;;25.93;41.37;99006.41;5034986;28;20536;-79
2021/07/05 08:01:29;;;;;;;0.80;0.80;;;;;;;25.89;40.73;99000.81;5035266;28;20237;-79
2021/07/05 08:03:56;;;;;;;1.27;0.90;;;;;;;26.05;41.05;98998.22;5020565;28;20231;-80
2021/07/05 08:06:23;;;;;;;1.77;0.80;;;;;;;25.84;40.94;99004.56;5028637;28;20232;-79
2021/07/05 08:08:55;;;;;;;0.80;0.80;;;;;;;25.89;41.39;98984.34;5018473;28;20710;-79
2021/07/05 08:11:22;;;;;;;0.98;0.98;;;;;;;26.17;40.72;99001.03;5035099;28;20243;-80
2021/07/05 08:13:49;;;;;;;1.70;1.02;;;;;;;26.62;40.14;99001.88;5003159;28;20698;-80
2021/07/05 08:16:16;;;;;;;1.95;0.90;;;;;;;27.10;39.19;99011.38;5033630;28;20625;-79
2021/07/05 08:18:43;;;;;;;4.13;1.05;;;;;;;27.29;38.45;98997.03;5018424;28;20335;-79
2021/07/05 08:21:10;;;;;;;3.25;0.90;;;;;;;28.24;37.59;98999.94;5018683;28;20241;-80
2021/07/05 08:23:36;;;;;;;1.88;0.90;;;;;;;28.76;35.44;99004.50;5035611;28;20535;-79
2021/07/05 08:26:03;;;;;;;1.00;1.00;;;;;;;28.83;35.78;99005.50;5017980;28;20231;-80
2021/07/05 08:28:30;;;;;;;2.00;1.00;;;;;;;29.58;34.60;99001.78;5034613;28;20526;-79
2021/07/05 08:30:58;;;;;;;2.65;1.00;;;;;;;29.07;34.60;98992.69;5035545;28;20237;-79
2021/07/05 08:33:25;;;;;;;2.63;1.00;;;;;;;28.84;34.45;99006.25;5018243;28;20240;-80
2021/07/05 08:35:51;;;;;;;0.82;0.82;;;;;;;29.10;34.86;99022.28;5018156;28;20244;-79
2021/07/05 08:38:18;;;;;;;1.55;0.85;;;;;;;29.02;34.39;99012.25;5017624;28;20280;-80
2021/07/05 08:40:45;;;;;;;0.98;0.88;;;;;;;29.34;34.44;99011.09;5034785;28;20617;-79
2021/07/05 08:43:12;;;;;;;1.15;0.90;;;;;;;29.66;33.52;99014.56;5034405;28;20241;-80
2021/07/05 08:45:45;;;;;;;0.90;0.90;;;;;;;29.48;34.05;98997.63;5042403;28;20648;-80
2021/07/05 08:48:13;;;;;;;3.22;0.90;;;;;;;29.99;33.11;99019.66;5037573;28;20676;-80
2021/07/05 08:50:43;;;;;;;1.55;1.00;;;;;;;30.09;32.71;99019.06;5037918;28;20225;-80
2021/07/05 08:53:10;;;;;;;1.60;1.00;;;;;;;30.08;32.94;99018.28;5037884;28;20527;-80
2021/07/05 08:55:36;;;;;;;3.55;0.90;;;;;;;30.45;32.42;99015.03;5037622;28;20241;-79
2021/07/05 08:58:03;;;;;;;0.85;0.85;;;;;;;30.73;31.56;99014.78;5037420;28;20225;-79
2021/07/05 09:00:31;;;;;;;0.95;0.90;;;;;;;30.70;31.44;99021.88;5054012;28;20233;-80
2021/07/05 09:03:00;;;;;;;1.20;0.88;;;;;;;30.66;30.92;99017.41;5054047;28;20230;-80
2021/07/05 09:05:27;;;;;;;1.83;0.80;;;;;;;30.25;31.56;99017.03;5037444;28;20532;-80
2021/07/05 09:07:55;;;;;;;0.70;0.70;;;;;;;29.91;31.92;99042.75;5020994;28;20247;-80
2021/07/05 09:10:23;;;;;;;1.58;0.77;;;;;;;29.73;31.90;99025.75;5036819;28;20225;-80
2021/07/05 09:13:06;;;;;;;3.25;0.90;;;;;;;30.07;32.17;99024.97;5053946;28;20238;-80
2021/07/05 09:15:39;;;;;;;1.05;0.82;;;;;;;30.46;31.81;99036.03;5053812;28;20643;-80
2021/07/05 09:18:28;;;;;;;1.77;0.70;;;;;;;30.63;31.75;99038.31;5020590;28;20229;-80
2021/07/05 09:20:59;;;;;;;1.00;1.00;;;;;;;30.57;31.79;99046.09;5053682;28;20237;-80
2021/07/05 09:23:26;;;;;;;1.85;0.80;;;;;;;30.37;31.97;99039.00;5037318;28;20268;-80
2021/07/05 09:25:53;;;;;;;1.35;0.80;;;;;;;30.04;32.13;99033.97;5037338;28;20232;-80
2021/07/05 09:28:23;;;;;;;3.35;0.80;;;;;;;29.86;32.51;99040.25;5020585;28;20256;-80
2021/07/05 09:30:56;;;;;;;1.00;0.90;;;;;;;29.81;32.20;99052.38;5053557;28;20238;-80
2021/07/05 09:33:28;;;;;;;0.95;0.70;;;;;;;29.79;32.53;99051.13;5053572;28;20229;-80
2021/07/05 09:35:57;;;;;;;1.15;0.80;;;;;;;29.90;32.52;99057.72;5037029;28;20240;-80
2021/07/05 09:38:36;;;;;;;1.15;0.85;;;;;;;29.24;33.26;99039.19;5053056;28;20643;-80
2021/07/05 09:41:26;;;;;;;0.82;0.82;;;;;;;29.50;32.73;99047.72;5037094;28;20247;-80
2021/07/05 09:43:56;;;;;;;1.00;0.70;;;;;;;29.81;32.90;99048.81;5053263;28;20225;-81
2021/07/05 09:46:43;;;;;;;1.23;0.77;;;;;;;29.29;32.77;99047.19;5041022;28;20237;-80
2021/07/05 09:49:20;;;;;;;0.80;0.80;;;;;;;29.38;33.45;99055.31;5037119;28;20229;-80
2021/07/05 09:52:04;;;;;;;0.68;0.68;;;;;;;29.46;32.82;99055.13;5053234;28;20702;-81
2021/07/05 09:54:33;;;;;;;1.08;0.77;;;;;;;29.20;32.58;99052.09;5020620;28;20647;-81
2021/07/05 09:57:02;;;;;;;1.70;0.90;;;;;;;29.59;32.96;99047.50;5020626;28;20260;-80
2021/07/05 09:59:29;;;;;;;0.85;0.85;;;;;;;29.64;32.39;99050.81;5043910;28;20244;-80
2021/07/05 10:01:58;;;;;;;2.47;0.80;;;;;;;30.09;31.35;99047.50;5033339;28;20245;-81
2021/07/05 10:04:27;;;;;;;1.40;0.80;;;;;;;29.96;31.26;99040.50;5033093;28;20269;-80
2021/07/05 10:06:57;;;;;;;1.10;0.90;;;;;;;29.77;31.49;99050.69;5033844;28;20289;-81
2021/07/05 10:09:41;;;;;;;1.13;1.02;;;;;;;29.82;31.85;99048.44;5018221;28;20317;-81
2021/07/05 10:12:21;;;;;;;2.10;0.80;;;;;;;30.06;31.64;99048.22;5033095;28;20245;-81
2021/07/05 10:14:54;;;;;;;1.05;0.82;;;;;;;30.17;31.22;99052.00;5016904;28;20569;-80
2021/07/05 10:17:22;;;;;;;1.35;0.77;;;;;;;30.25;31.53;99052.94;5042455;28;20230;-80
2021/07/05 10:19:49;;;;;;;1.60;0.70;;;;;;;30.44;30.92;99036.34;5017293;28;20533;-80
2021/07/05 10:22:17;;;;;;;1.20;0.80;;;;;;;30.60;30.64;99037.09;5016747;28;20274;-80
2021/07/05 10:24:46;;;;;;;1.17;0.80;;;;;;;30.81;30.59;99038.63;5016691;28;20531;-80
2021/07/05 10:27:13;;;;;;;0.88;0.88;;;;;;;31.13;29.94;99026.19;5016983;28;20242;-80
2021/07/05 10:29:44;;;;;;;0.95;0.90;;;;;;;31.50;29.96;99040.19;5000925;28;20232;-85
2021/07/05 10:32:11;;;;;;;0.80;0.80;;;;;;;31.50;29.22;99011.75;5033035;28;20230;-85
2021/07/05 10:34:39;;;;;;;0.80;0.80;;;;;;;31.03;29.87;99040.63;5000798;28;20234;-86
2021/07/05 10:37:10;;;;;;;0.80;0.80;;;;;;;31.57;29.70;99022.94;5000606;28;20292;-87
2021/07/05 10:39:38;;;;;;;0.70;0.70;;;;;;;31.71;29.02;99021.16;5000953;28;20253;-87
2021/07/05 10:42:27;;;;;;;0.80;0.80;;;;;;;31.48;30.52;99028.72;5003800;28;20313;-87
2021/07/05 10:44:55;;;;;;;1.77;0.90;;;;;;;31.56;29.74;99010.25;5036779;28;20222;-87
2021/07/05 10:47:52;;;;;;;0.70;0.70;;;;;;;31.81;29.74;99016.94;5020506;28;20222;-86
2021/07/05 10:50:47;;;;;;;0.80;0.80;;;;;;;31.25;29.67;99008.59;5004021;28;20524;-88
2021/07/05 10:53:40;;;;;;;0.80;0.80;;;;;;;31.65;28.99;99019.09;5020512;28;20236;-84
2021/07/05 10:56:31;;;;;;;1.10;0.80;;;;;;;32.46;28.09;99017.38;5036922;28;20230;-87
2021/07/05 10:59:17;;;;;;;1.25;0.80;;;;;;;32.95;27.93;99019.06;5037219;28;20253;-85
2021/07/05 11:01:48;;;;;;;1.30;0.90;;;;;;;33.05;27.63;99013.59;5045032;28;20563;-85
2021/07/05 11:04:29;;;;;;;0.73;0.73;;;;;;;33.22;26.68;99019.72;5039887;28;20229;-86
2021/07/05 11:07:24;;;;;;;1.33;0.80;;;;;;;33.13;26.38;99018.03;5024112;28;20221;-88
2021/07/05 11:09:56;;;;;;;0.93;0.85;;;;;;;32.91;26.91;99018.22;5024876;28;20226;-89
2021/07/05 11:12:33;;;;;;;1.40;0.90;;;;;;;32.29;27.98;99013.22;5020435;28;20234;-88
2021/07/05 11:15:00;;;;;;;0.77;0.77;;;;;;;32.35;27.79;99013.69;5032750;28;20233;-87
2021/07/05 11:17:29;;;;;;;0.80;0.77;;;;;;;32.65;27.43;99014.44;5032455;28;20260;-86
2021/07/05 11:20:15;;;;;;;2.47;1.25;;;;;;;32.73;27.58;99018.06;5036333;28;20243;-87
2021/07/05 11:22:53;;;;;;;1.67;0.73;;;;;;;32.56;27.89;99013.13;5021418;28;20227;-86
2021/07/05 11:25:20;;;;;;;0.82;0.70;;;;;;;33.38;26.62;99014.66;5021494;28;20229;-87
2021/07/05 11:27:59;;;;;;;1.65;0.90;;;;;;;33.59;26.45;99003.72;5054121;28;20591;-87
2021/07/05 11:30:33;;;;;;;0.80;0.80;;;;;;;34.04;25.34;99019.06;5053970;28;20921;-86
2021/07/05 11:33:12;;;;;;;1.20;0.95;;;;;;;33.21;25.74;99010.59;5037902;28;20241;-88
2021/07/05 11:35:48;;;;;;;1.00;0.90;;;;;;;33.34;26.36;99011.88;5056401;28;20245;-87
2021/07/05 11:38:28;;;;;;;0.85;0.80;;;;;;;33.39;25.70;99005.16;5056883;28;20252;-86
2021/07/05 11:40:59;;;;;;;0.68;0.68;;;;;;;33.67;24.70;98994.28;5056023;28;20305;-87
2021/07/05 11:43:59;;;;;;;0.73;0.73;;;;;;;33.42;25.02;98991.31;5039847;28;20249;-87